sensor_id;sensor_type;location;lat;lon;timestamp;pressure;altitude;pressure_sealevel;temperature;humidity
20039;BME280;21737;42.868;25.320;2024-03-06T00:00:07;96834.38;;;6.88;86.68
20039;BME280;21737;42.868;25.320;2024-03-06T00:02:36;96846.88;;;6.99;86.07
20039;BME280;21737;42.868;25.320;2024-03-06T00:05:02;96836.63;;;6.82;87.29
20039;BME280;21737;42.868;25.320;2024-03-06T00:07:30;96839.03;;;6.68;87.63
20039;BME280;21737;42.868;25.320;2024-03-06T00:09:56;96837.75;;;6.88;86.60
20039;BME280;21737;42.868;25.320;2024-03-06T00:12:23;96843.00;;;6.95;85.72
20039;BME280;21737;42.868;25.320;2024-03-06T00:14:49;96832.28;;;6.83;86.70
20039;BME280;21737;42.868;25.320;2024-03-06T00:17:15;96832.94;;;6.69;87.83
20039;BME280;21737;42.868;25.320;2024-03-06T00:19:42;96832.13;;;6.68;86.97
20039;BME280;21737;42.868;25.320;2024-03-06T00:22:10;96843.19;;;6.69;87.11
20039;BME280;21737;42.868;25.320;2024-03-06T00:24:37;96841.44;;;6.77;86.92
20039;BME280;21737;42.868;25.320;2024-03-06T00:27:03;96836.31;;;6.86;86.71
20039;BME280;21737;42.868;25.320;2024-03-06T00:29:30;96831.31;;;6.76;87.26
20039;BME280;21737;42.868;25.320;2024-03-06T00:31:57;96842.84;;;6.96;87.04
20039;BME280;21737;42.868;25.320;2024-03-06T00:34:23;96843.97;;;6.94;86.26
20039;BME280;21737;42.868;25.320;2024-03-06T00:36:49;96841.75;;;6.91;86.33
20039;BME280;21737;42.868;25.320;2024-03-06T00:39:15;96840.31;;;6.80;87.54
20039;BME280;21737;42.868;25.320;2024-03-06T00:41:41;96844.47;;;6.89;86.00
20039;BME280;21737;42.868;25.320;2024-03-06T00:44:07;96841.59;;;6.84;86.83
20039;BME280;21737;42.868;25.320;2024-03-06T00:46:33;96840.31;;;6.64;88.11
20039;BME280;21737;42.868;25.320;2024-03-06T00:49:01;96836.28;;;6.69;88.17
20039;BME280;21737;42.868;25.320;2024-03-06T00:51:28;96834.84;;;6.75;87.65
20039;BME280;21737;42.868;25.320;2024-03-06T00:54:00;96842.38;;;6.68;87.53
20039;BME280;21737;42.868;25.320;2024-03-06T00:56:27;96843.69;;;6.80;88.38
20039;BME280;21737;42.868;25.320;2024-03-06T00:58:54;96850.88;;;6.77;88.54
20039;BME280;21737;42.868;25.320;2024-03-06T01:01:21;96847.03;;;6.73;87.78
20039;BME280;21737;42.868;25.320;2024-03-06T01:03:47;96852.19;;;6.65;87.74
20039;BME280;21737;42.868;25.320;2024-03-06T01:06:13;96846.25;;;6.64;89.02
20039;BME280;21737;42.868;25.320;2024-03-06T01:08:39;96847.69;;;6.67;89.31
20039;BME280;21737;42.868;25.320;2024-03-06T01:11:06;96847.38;;;6.62;88.79
20039;BME280;21737;42.868;25.320;2024-03-06T01:13:32;96841.13;;;6.64;89.15
20039;BME280;21737;42.868;25.320;2024-03-06T01:15:58;96843.84;;;6.63;89.37
20039;BME280;21737;42.868;25.320;2024-03-06T01:18:24;96854.25;;;6.61;89.81
20039;BME280;21737;42.868;25.320;2024-03-06T01:20:50;96859.88;;;6.57;88.85
20039;BME280;21737;42.868;25.320;2024-03-06T01:23:16;96863.56;;;6.54;89.21
20039;BME280;21737;42.868;25.320;2024-03-06T01:25:42;96856.94;;;6.43;90.38
20039;BME280;21737;42.868;25.320;2024-03-06T01:28:08;96863.56;;;6.54;89.08
20039;BME280;21737;42.868;25.320;2024-03-06T01:30:34;96866.25;;;6.44;90.47
20039;BME280;21737;42.868;25.320;2024-03-06T01:33:06;96873.31;;;6.34;89.06
20039;BME280;21737;42.868;25.320;2024-03-06T01:35:32;96872.19;;;6.37;90.70
20039;BME280;21737;42.868;25.320;2024-03-06T01:37:58;96870.25;;;6.47;89.68
20039;BME280;21737;42.868;25.320;2024-03-06T01:40:24;96875.69;;;6.44;90.88
20039;BME280;21737;42.868;25.320;2024-03-06T01:42:50;96869.97;;;6.42;89.83
20039;BME280;21737;42.868;25.320;2024-03-06T01:45:17;96864.22;;;6.64;90.01
20039;BME280;21737;42.868;25.320;2024-03-06T01:47:42;96869.16;;;6.58;89.73
20039;BME280;21737;42.868;25.320;2024-03-06T01:50:09;96876.06;;;6.57;89.72
20039;BME280;21737;42.868;25.320;2024-03-06T01:52:39;96873.19;;;6.60;88.72
20039;BME280;21737;42.868;25.320;2024-03-06T01:55:07;96871.72;;;6.58;88.74
20039;BME280;21737;42.868;25.320;2024-03-06T01:57:35;96867.06;;;6.53;88.45
20039;BME280;21737;42.868;25.320;2024-03-06T02:00:03;96869.50;;;6.79;88.07
20039;BME280;21737;42.868;25.320;2024-03-06T02:02:30;96864.69;;;6.76;87.67
20039;BME280;21737;42.868;25.320;2024-03-06T02:04:57;96878.63;;;6.81;87.04
20039;BME280;21737;42.868;25.320;2024-03-06T02:07:28;96875.91;;;6.67;87.72
20039;BME280;21737;42.868;25.320;2024-03-06T02:09:57;96869.66;;;6.77;87.64
20039;BME280;21737;42.868;25.320;2024-03-06T02:12:30;96871.41;;;6.61;87.05
20039;BME280;21737;42.868;25.320;2024-03-06T02:15:02;96875.09;;;6.74;87.25
20039;BME280;21737;42.868;25.320;2024-03-06T02:17:29;96875.72;;;6.68;87.34
20039;BME280;21737;42.868;25.320;2024-03-06T02:19:55;96875.09;;;6.58;87.09
20039;BME280;21737;42.868;25.320;2024-03-06T02:22:24;96880.38;;;6.57;87.47
20039;BME280;21737;42.868;25.320;2024-03-06T02:24:50;96884.69;;;6.48;87.62
20039;BME280;21737;42.868;25.320;2024-03-06T02:27:16;96880.53;;;6.55;87.89
20039;BME280;21737;42.868;25.320;2024-03-06T02:29:42;96880.38;;;6.57;89.02
20039;BME280;21737;42.868;25.320;2024-03-06T02:32:12;96882.97;;;6.65;88.54
20039;BME280;21737;42.868;25.320;2024-03-06T02:34:39;96874.13;;;6.59;87.41
20039;BME280;21737;42.868;25.320;2024-03-06T02:37:06;96883.25;;;6.70;87.40
20039;BME280;21737;42.868;25.320;2024-03-06T02:39:32;96890.50;;;6.66;88.57
20039;BME280;21737;42.868;25.320;2024-03-06T02:41:58;96882.16;;;6.64;88.58
20039;BME280;21737;42.868;25.320;2024-03-06T02:44:24;96891.78;;;6.62;88.15
20039;BME280;21737;42.868;25.320;2024-03-06T02:46:50;96887.94;;;6.66;88.53
20039;BME280;21737;42.868;25.320;2024-03-06T02:49:18;96894.66;;;6.59;87.19
20039;BME280;21737;42.868;25.320;2024-03-06T02:51:50;96887.44;;;6.63;88.76
20039;BME280;21737;42.868;25.320;2024-03-06T02:54:24;96897.00;;;6.44;88.65
20039;BME280;21737;42.868;25.320;2024-03-06T02:56:52;96895.44;;;6.52;89.13
20039;BME280;21737;42.868;25.320;2024-03-06T02:59:18;96897.34;;;6.49;88.18
20039;BME280;21737;42.868;25.320;2024-03-06T03:01:44;96895.44;;;6.52;89.71
20039;BME280;21737;42.868;25.320;2024-03-06T03:04:11;96900.25;;;6.55;89.14
20039;BME280;21737;42.868;25.320;2024-03-06T03:06:38;96895.91;;;6.47;89.45
20039;BME280;21737;42.868;25.320;2024-03-06T03:09:04;96891.72;;;6.46;88.53
20039;BME280;21737;42.868;25.320;2024-03-06T03:11:30;96894.94;;;6.48;88.57
20039;BME280;21737;42.868;25.320;2024-03-06T03:13:58;96894.94;;;6.48;89.38
20039;BME280;21737;42.868;25.320;2024-03-06T03:16:26;96897.66;;;6.46;88.16
20039;BME280;21737;42.868;25.320;2024-03-06T03:18:52;96896.88;;;6.46;88.85
20039;BME280;21737;42.868;25.320;2024-03-06T03:21:18;96893.97;;;6.49;88.08
20039;BME280;21737;42.868;25.320;2024-03-06T03:23:44;96890.47;;;6.42;88.69
20039;BME280;21737;42.868;25.320;2024-03-06T03:26:10;96898.34;;;6.57;88.55
20039;BME280;21737;42.868;25.320;2024-03-06T03:28:39;96895.94;;;6.55;87.57
20039;BME280;21737;42.868;25.320;2024-03-06T03:31:09;96908.59;;;6.57;87.61
20039;BME280;21737;42.868;25.320;2024-03-06T03:33:39;96905.38;;;6.55;87.10
20039;BME280;21737;42.868;25.320;2024-03-06T03:36:07;96911.97;;;6.73;87.16
20039;BME280;21737;42.868;25.320;2024-03-06T03:38:35;96911.50;;;6.62;87.52
20039;BME280;21737;42.868;25.320;2024-03-06T03:41:11;96904.44;;;6.72;87.28
20039;BME280;21737;42.868;25.320;2024-03-06T03:43:41;96914.84;;;6.54;87.39
20039;BME280;21737;42.868;25.320;2024-03-06T03:46:08;96910.38;;;6.72;87.20
20039;BME280;21737;42.868;25.320;2024-03-06T03:48:35;96909.91;;;6.77;86.62
20039;BME280;21737;42.868;25.320;2024-03-06T03:51:05;96920.13;;;6.69;87.40
20039;BME280;21737;42.868;25.320;2024-03-06T03:53:31;96924.81;;;6.65;87.47
20039;BME280;21737;42.868;25.320;2024-03-06T03:55:57;96921.44;;;6.65;86.51
20039;BME280;21737;42.868;25.320;2024-03-06T03:58:23;96929.75;;;6.59;87.28
20039;BME280;21737;42.868;25.320;2024-03-06T04:00:49;96922.56;;;6.62;87.52
20039;BME280;21737;42.868;25.320;2024-03-06T04:03:24;96927.53;;;6.64;86.82
20039;BME280;21737;42.868;25.320;2024-03-06T04:05:50;96935.22;;;6.72;86.57
20039;BME280;21737;42.868;25.320;2024-03-06T04:08:16;96939.88;;;6.76;87.04
20039;BME280;21737;42.868;25.320;2024-03-06T04:10:43;96932.50;;;6.73;86.22
20039;BME280;21737;42.868;25.320;2024-03-06T04:13:12;96940.50;;;6.62;86.88
20039;BME280;21737;42.868;25.320;2024-03-06T04:15:40;96944.19;;;6.60;87.54
20039;BME280;21737;42.868;25.320;2024-03-06T04:18:06;96946.44;;;6.71;87.33
20039;BME280;21737;42.868;25.320;2024-03-06T04:20:33;96943.22;;;6.69;86.40
20039;BME280;21737;42.868;25.320;2024-03-06T04:22:59;96951.72;;;6.69;86.07
20039;BME280;21737;42.868;25.320;2024-03-06T04:25:26;96947.22;;;6.55;86.76
20039;BME280;21737;42.868;25.320;2024-03-06T04:27:52;96953.63;;;6.51;87.70
20039;BME280;21737;42.868;25.320;2024-03-06T04:30:18;96953.94;;;6.56;87.67
20039;BME280;21737;42.868;25.320;2024-03-06T04:32:45;96944.03;;;6.69;86.84
20039;BME280;21737;42.868;25.320;2024-03-06T04:35:11;96945.31;;;6.65;87.21
20039;BME280;21737;42.868;25.320;2024-03-06T04:37:39;96955.09;;;6.70;86.94
20039;BME280;21737;42.868;25.320;2024-03-06T04:40:06;96957.97;;;6.59;86.40
20039;BME280;21737;42.868;25.320;2024-03-06T04:42:37;96943.53;;;6.58;86.34
20039;BME280;21737;42.868;25.320;2024-03-06T04:45:15;96947.25;;;6.63;87.24
20039;BME280;21737;42.868;25.320;2024-03-06T04:47:42;96950.94;;;6.77;85.51
20039;BME280;21737;42.868;25.320;2024-03-06T04:50:15;96949.66;;;6.81;85.70
20039;BME280;21737;42.868;25.320;2024-03-06T04:52:43;96953.81;;;6.66;86.55
20039;BME280;21737;42.868;25.320;2024-03-06T04:55:12;96960.84;;;6.56;86.65
20039;BME280;21737;42.868;25.320;2024-03-06T04:57:43;96954.44;;;6.60;85.91
20039;BME280;21737;42.868;25.320;2024-03-06T05:00:10;96950.91;;;6.61;86.17
20039;BME280;21737;42.868;25.320;2024-03-06T05:02:36;96960.22;;;6.62;86.15
20039;BME280;21737;42.868;25.320;2024-03-06T05:05:04;96956.53;;;6.72;85.95
20039;BME280;21737;42.868;25.320;2024-03-06T05:07:31;96963.47;;;6.88;85.08
20039;BME280;21737;42.868;25.320;2024-03-06T05:09:57;96951.13;;;7.00;84.84
20039;BME280;21737;42.868;25.320;2024-03-06T05:12:27;96959.28;;;6.79;85.63
20039;BME280;21737;42.868;25.320;2024-03-06T05:14:54;96965.38;;;6.78;84.96
20039;BME280;21737;42.868;25.320;2024-03-06T05:17:21;96963.78;;;6.93;84.52
20039;BME280;21737;42.868;25.320;2024-03-06T05:19:48;96968.06;;;6.68;85.82
20039;BME280;21737;42.868;25.320;2024-03-06T05:22:17;96974.50;;;6.80;84.96
20039;BME280;21737;42.868;25.320;2024-03-06T05:24:50;96977.41;;;6.77;84.88
20039;BME280;21737;42.868;25.320;2024-03-06T05:27:17;96983.00;;;6.65;86.03
20039;BME280;21737;42.868;25.320;2024-03-06T05:29:44;96978.47;;;6.59;85.60
20039;BME280;21737;42.868;25.320;2024-03-06T05:32:10;96982.19;;;6.72;86.44
20039;BME280;21737;42.868;25.320;2024-03-06T05:34:37;96989.56;;;6.75;86.40
20039;BME280;21737;42.868;25.320;2024-03-06T05:37:04;96990.84;;;6.63;86.73
20039;BME280;21737;42.868;25.320;2024-03-06T05:39:31;96992.16;;;6.67;86.33
20039;BME280;21737;42.868;25.320;2024-03-06T05:42:02;96997.88;;;6.69;84.99
20039;BME280;21737;42.868;25.320;2024-03-06T05:44:30;97004.34;;;6.81;85.93
20039;BME280;21737;42.868;25.320;2024-03-06T05:47:01;97003.88;;;6.86;85.61
20039;BME280;21737;42.868;25.320;2024-03-06T05:49:29;97005.47;;;6.79;86.20
20039;BME280;21737;42.868;25.320;2024-03-06T05:51:57;97010.91;;;6.76;86.03
20039;BME280;21737;42.868;25.320;2024-03-06T05:54:23;97019.44;;;6.85;86.70
20039;BME280;21737;42.868;25.320;2024-03-06T05:56:50;97018.94;;;6.81;85.21
20039;BME280;21737;42.868;25.320;2024-03-06T05:59:17;97020.22;;;6.85;84.92
20039;BME280;21737;42.868;25.320;2024-03-06T06:01:44;97029.72;;;6.93;85.69
20039;BME280;21737;42.868;25.320;2024-03-06T06:04:11;97025.69;;;6.98;85.11
20039;BME280;21737;42.868;25.320;2024-03-06T06:06:37;97029.91;;;7.07;84.23
20039;BME280;21737;42.868;25.320;2024-03-06T06:09:03;97029.91;;;7.24;84.09
20039;BME280;21737;42.868;25.320;2024-03-06T06:11:33;97022.53;;;7.12;83.98
20039;BME280;21737;42.868;25.320;2024-03-06T06:13:59;97025.28;;;7.35;84.74
20039;BME280;21737;42.868;25.320;2024-03-06T06:16:38;97019.00;;;7.30;84.20
20039;BME280;21737;42.868;25.320;2024-03-06T06:19:06;97018.84;;;7.31;83.83
20039;BME280;21737;42.868;25.320;2024-03-06T06:21:33;97018.19;;;7.29;83.20
20039;BME280;21737;42.868;25.320;2024-03-06T06:24:04;97029.59;;;7.43;83.40
20039;BME280;21737;42.868;25.320;2024-03-06T06:26:31;97025.56;;;7.24;84.11
20039;BME280;21737;42.868;25.320;2024-03-06T06:28:58;97024.13;;;7.05;84.86
20039;BME280;21737;42.868;25.320;2024-03-06T06:31:24;97029.91;;;7.24;83.49
20039;BME280;21737;42.868;25.320;2024-03-06T06:33:51;97030.72;;;7.24;82.77
20039;BME280;21737;42.868;25.320;2024-03-06T06:36:18;97029.13;;;7.15;83.66
20039;BME280;21737;42.868;25.320;2024-03-06T06:38:47;97028.81;;;7.34;83.23
20039;BME280;21737;42.868;25.320;2024-03-06T06:41:14;97032.31;;;7.49;81.39
20039;BME280;21737;42.868;25.320;2024-03-06T06:43:42;97028.78;;;7.50;82.50
20039;BME280;21737;42.868;25.320;2024-03-06T06:46:08;97027.19;;;7.49;83.03
20039;BME280;21737;42.868;25.320;2024-03-06T06:48:34;97030.56;;;7.26;81.91
20039;BME280;21737;42.868;25.320;2024-03-06T06:51:00;97025.09;;;7.45;81.73
20039;BME280;21737;42.868;25.320;2024-03-06T06:53:30;97037.47;;;7.33;82.39
20039;BME280;21737;42.868;25.320;2024-03-06T06:56:03;97031.53;;;7.33;83.57
20039;BME280;21737;42.868;25.320;2024-03-06T06:58:29;97039.84;;;7.43;82.46
20039;BME280;21737;42.868;25.320;2024-03-06T07:00:55;97035.53;;;7.43;82.39
20039;BME280;21737;42.868;25.320;2024-03-06T07:03:21;97040.03;;;7.33;82.69
20039;BME280;21737;42.868;25.320;2024-03-06T07:05:50;97035.69;;;7.50;83.38
20039;BME280;21737;42.868;25.320;2024-03-06T07:08:16;97036.00;;;7.47;81.34
20039;BME280;21737;42.868;25.320;2024-03-06T07:10:42;97041.00;;;7.48;81.67
20039;BME280;21737;42.868;25.320;2024-03-06T07:13:08;97033.13;;;7.34;81.45
20039;BME280;21737;42.868;25.320;2024-03-06T07:15:34;97047.56;;;7.51;81.59
20039;BME280;21737;42.868;25.320;2024-03-06T07:18:00;97047.59;;;7.59;81.41
20039;BME280;21737;42.868;25.320;2024-03-06T07:20:26;97053.50;;;7.51;81.65
20039;BME280;21737;42.868;25.320;2024-03-06T07:22:52;97052.69;;;7.67;81.16
20039;BME280;21737;42.868;25.320;2024-03-06T07:25:20;97052.06;;;7.90;80.80
20039;BME280;21737;42.868;25.320;2024-03-06T07:27:46;97051.91;;;7.83;80.66
20039;BME280;21737;42.868;25.320;2024-03-06T07:30:12;97056.41;;;7.89;79.58
20039;BME280;21737;42.868;25.320;2024-03-06T07:32:39;97052.69;;;8.00;78.88
20039;BME280;21737;42.868;25.320;2024-03-06T07:35:08;97050.47;;;7.89;80.45
20039;BME280;21737;42.868;25.320;2024-03-06T07:37:35;97052.03;;;7.98;79.61
20039;BME280;21737;42.868;25.320;2024-03-06T07:40:02;97051.88;;;7.99;79.37
20039;BME280;21737;42.868;25.320;2024-03-06T07:42:30;97057.94;;;8.23;78.99
20039;BME280;21737;42.868;25.320;2024-03-06T07:44:57;97052.72;;;7.92;79.41
20039;BME280;21737;42.868;25.320;2024-03-06T07:47:23;97060.53;;;8.14;78.27
20039;BME280;21737;42.868;25.320;2024-03-06T07:49:49;97051.56;;;8.02;79.57
20039;BME280;21737;42.868;25.320;2024-03-06T07:52:19;97061.19;;;8.00;80.26
20039;BME280;21737;42.868;25.320;2024-03-06T07:54:45;97056.84;;;8.01;79.88
20039;BME280;21737;42.868;25.320;2024-03-06T07:57:12;97053.47;;;8.16;79.35
20039;BME280;21737;42.868;25.320;2024-03-06T07:59:38;97052.78;;;8.39;78.65
20039;BME280;21737;42.868;25.320;2024-03-06T08:02:03;97049.56;;;8.29;78.55
20039;BME280;21737;42.868;25.320;2024-03-06T08:04:36;97061.00;;;8.34;78.35
20039;BME280;21737;42.868;25.320;2024-03-06T08:07:04;97053.06;;;8.52;78.85
20039;BME280;21737;42.868;25.320;2024-03-06T08:09:37;97063.16;;;8.62;78.41
20039;BME280;21737;42.868;25.320;2024-03-06T08:12:03;97061.09;;;8.88;76.46
20039;BME280;21737;42.868;25.320;2024-03-06T08:14:29;97065.22;;;8.97;77.37
20039;BME280;21737;42.868;25.320;2024-03-06T08:16:56;97070.16;;;9.07;77.60
20039;BME280;21737;42.868;25.320;2024-03-06T08:19:22;97074.66;;;9.36;76.08
20039;BME280;21737;42.868;25.320;2024-03-06T08:21:51;97075.81;;;9.02;75.53
20039;BME280;21737;42.868;25.320;2024-03-06T08:24:18;97074.59;;;9.21;76.04
20039;BME280;21737;42.868;25.320;2024-03-06T08:26:44;97073.19;;;8.79;76.07
20039;BME280;21737;42.868;25.320;2024-03-06T08:29:10;97076.44;;;8.73;76.67
20039;BME280;21737;42.868;25.320;2024-03-06T08:31:36;97080.34;;;9.00;76.37
20039;BME280;21737;42.868;25.320;2024-03-06T08:34:02;97065.53;;;9.02;77.20
20039;BME280;21737;42.868;25.320;2024-03-06T08:36:28;97079.16;;;9.11;76.59
20039;BME280;21737;42.868;25.320;2024-03-06T08:38:54;97068.06;;;9.33;76.50
20039;BME280;21737;42.868;25.320;2024-03-06T08:41:20;97074.03;;;9.57;75.79
20039;BME280;21737;42.868;25.320;2024-03-06T08:43:46;97080.16;;;9.33;76.26
20039;BME280;21737;42.868;25.320;2024-03-06T08:46:13;97075.34;;;9.52;74.55
20039;BME280;21737;42.868;25.320;2024-03-06T08:48:38;97083.28;;;9.20;75.12
20039;BME280;21737;42.868;25.320;2024-03-06T08:51:04;97083.53;;;9.02;77.02
20039;BME280;21737;42.868;25.320;2024-03-06T08:53:38;97092.03;;;8.80;77.70
20039;BME280;21737;42.868;25.320;2024-03-06T08:56:05;97090.59;;;8.77;77.88
20039;BME280;21737;42.868;25.320;2024-03-06T08:58:32;97096.28;;;8.65;76.55
20039;BME280;21737;42.868;25.320;2024-03-06T09:00:58;97088.72;;;8.63;76.01
20039;BME280;21737;42.868;25.320;2024-03-06T09:03:24;97091.63;;;8.52;77.51
20039;BME280;21737;42.868;25.320;2024-03-06T09:05:50;97097.75;;;8.51;77.47
20039;BME280;21737;42.868;25.320;2024-03-06T09:08:18;97095.66;;;8.46;76.50
20039;BME280;21737;42.868;25.320;2024-03-06T09:10:44;97096.34;;;8.40;77.17
20039;BME280;21737;42.868;25.320;2024-03-06T09:13:11;97090.84;;;8.51;76.87
20039;BME280;21737;42.868;25.320;2024-03-06T09:15:37;97091.47;;;8.53;77.24
20039;BME280;21737;42.868;25.320;2024-03-06T09:18:03;97096.63;;;8.53;76.20
20039;BME280;21737;42.868;25.320;2024-03-06T09:20:29;97099.84;;;8.47;78.68
20039;BME280;21737;42.868;25.320;2024-03-06T09:22:56;97092.97;;;8.40;79.26
20039;BME280;21737;42.868;25.320;2024-03-06T09:25:24;97100.97;;;8.53;77.65
20039;BME280;21737;42.868;25.320;2024-03-06T09:27:50;97095.72;;;8.38;77.77
20039;BME280;21737;42.868;25.320;2024-03-06T09:30:16;97093.59;;;8.42;77.47
20039;BME280;21737;42.868;25.320;2024-03-06T09:32:43;97091.66;;;8.44;77.33
20039;BME280;21737;42.868;25.320;2024-03-06T09:35:09;97093.63;;;8.34;78.01
20039;BME280;21737;42.868;25.320;2024-03-06T09:37:35;97088.28;;;8.43;78.39
20039;BME280;21737;42.868;25.320;2024-03-06T09:40:01;97083.03;;;8.68;76.91
20039;BME280;21737;42.868;25.320;2024-03-06T09:42:28;97081.59;;;8.73;77.72
20039;BME280;21737;42.868;25.320;2024-03-06T09:44:55;97097.66;;;8.83;76.90
20039;BME280;21737;42.868;25.320;2024-03-06T09:47:22;97091.53;;;8.84;76.49
20039;BME280;21737;42.868;25.320;2024-03-06T09:49:53;97095.03;;;9.23;76.14
20039;BME280;21737;42.868;25.320;2024-03-06T09:52:19;97092.63;;;9.44;75.00
20039;BME280;21737;42.868;25.320;2024-03-06T09:54:47;97090.94;;;9.97;74.27
20039;BME280;21737;42.868;25.320;2024-03-06T09:57:14;97089.16;;;10.49;71.28
20039;BME280;21737;42.868;25.320;2024-03-06T09:59:42;97089.16;;;10.49;69.14
20039;BME280;21737;42.868;25.320;2024-03-06T10:03:04;97091.00;;;10.26;70.73
20039;BME280;21737;42.868;25.320;2024-03-06T10:05:20;97092.22;;;9.32;72.85
20039;BME280;21737;42.868;25.320;2024-03-06T10:07:49;97089.41;;;9.42;72.61
20039;BME280;21737;42.868;25.320;2024-03-06T10:10:19;97094.88;;;9.47;73.79
20039;BME280;21737;42.868;25.320;2024-03-06T10:12:46;97093.56;;;9.20;74.07
20039;BME280;21737;42.868;25.320;2024-03-06T10:15:15;97095.63;;;9.55;74.78
20039;BME280;21737;42.868;25.320;2024-03-06T10:17:41;97094.75;;;9.40;74.42
20039;BME280;21737;42.868;25.320;2024-03-06T10:20:23;97092.63;;;9.44;74.61
20039;BME280;21737;42.868;25.320;2024-03-06T10:22:55;97093.25;;;9.69;72.13
20039;BME280;21737;42.868;25.320;2024-03-06T10:25:21;97088.16;;;9.83;72.77
20039;BME280;21737;42.868;25.320;2024-03-06T10:28:18;97092.63;;;9.89;72.28
20039;BME280;21737;42.868;25.320;2024-03-06T10:30:45;97091.25;;;9.79;72.75
20039;BME280;21737;42.868;25.320;2024-03-06T10:33:16;97085.06;;;9.88;70.74
20039;BME280;21737;42.868;25.320;2024-03-06T10:35:46;97080.97;;;9.94;71.06
20039;BME280;21737;42.868;25.320;2024-03-06T10:38:14;97074.91;;;10.53;69.68
20039;BME280;21737;42.868;25.320;2024-03-06T10:40:43;97076.38;;;10.92;68.84
20039;BME280;21737;42.868;25.320;2024-03-06T10:43:09;97076.63;;;10.97;66.70
20039;BME280;21737;42.868;25.320;2024-03-06T10:48:17;97072.13;;;10.70;66.62
20039;BME280;21737;42.868;25.320;2024-03-06T10:50:46;97075.16;;;10.88;66.95
20039;BME280;21737;42.868;25.320;2024-03-06T10:53:15;97073.78;;;11.07;66.27
20039;BME280;21737;42.868;25.320;2024-03-06T10:55:43;97070.53;;;11.41;64.29
20039;BME280;21737;42.868;25.320;2024-03-06T10:58:13;97062.91;;;11.75;63.93
20039;BME280;21737;42.868;25.320;2024-03-06T11:00:48;97064.28;;;11.14;65.16
20039;BME280;21737;42.868;25.320;2024-03-06T11:03:15;97067.03;;;11.48;63.04
20039;BME280;21737;42.868;25.320;2024-03-06T11:05:42;97062.75;;;11.77;63.19
20039;BME280;21737;42.868;25.320;2024-03-06T11:08:13;97053.25;;;11.84;63.67
20039;BME280;21737;42.868;25.320;2024-03-06T11:10:40;97061.06;;;11.69;63.78
20039;BME280;21737;42.868;25.320;2024-03-06T11:15:48;97049.72;;;11.91;61.99
20039;BME280;21737;42.868;25.320;2024-03-06T11:23:33;97046.88;;;12.08;61.96
20039;BME280;21737;42.868;25.320;2024-03-06T11:26:03;97031.63;;;12.26;60.29
20039;BME280;21737;42.868;25.320;2024-03-06T11:28:33;97040.13;;;11.64;62.02
20039;BME280;21737;42.868;25.320;2024-03-06T11:31:02;97034.97;;;11.85;61.84
20039;BME280;21737;42.868;25.320;2024-03-06T11:33:34;97033.16;;;11.65;63.09
20039;BME280;21737;42.868;25.320;2024-03-06T11:36:26;97028.09;;;11.29;62.98
20039;BME280;21737;42.868;25.320;2024-03-06T11:41:28;97026.78;;;11.82;61.76
20039;BME280;21737;42.868;25.320;2024-03-06T11:43:55;97022.06;;;11.71;61.20
20039;BME280;21737;42.868;25.320;2024-03-06T11:46:45;97022.88;;;11.71;62.56
20039;BME280;21737;42.868;25.320;2024-03-06T11:49:20;97013.41;;;12.06;60.43
20039;BME280;21737;42.868;25.320;2024-03-06T11:51:47;97013.16;;;11.73;62.34
20039;BME280;21737;42.868;25.320;2024-03-06T11:54:14;97012.72;;;11.70;61.37
20039;BME280;21737;42.868;25.320;2024-03-06T11:56:40;97012.88;;;11.83;61.94
20039;BME280;21737;42.868;25.320;2024-03-06T11:59:06;97007.13;;;11.87;62.27
20039;BME280;21737;42.868;25.320;2024-03-06T12:01:33;97010.03;;;11.56;62.27
20039;BME280;21737;42.868;25.320;2024-03-06T12:04:00;97007.66;;;11.55;63.24
20039;BME280;21737;42.868;25.320;2024-03-06T12:06:27;97008.69;;;11.61;63.51
20039;BME280;21737;42.868;25.320;2024-03-06T12:08:55;97006.34;;;11.93;62.43
20039;BME280;21737;42.868;25.320;2024-03-06T12:11:21;97006.28;;;11.80;63.78
20039;BME280;21737;42.868;25.320;2024-03-06T12:13:51;97019.84;;;11.61;62.99
20039;BME280;21737;42.868;25.320;2024-03-06T12:16:19;97016.81;;;11.57;64.63
20039;BME280;21737;42.868;25.320;2024-03-06T12:18:45;97018.81;;;11.34;64.56
20039;BME280;21737;42.868;25.320;2024-03-06T12:21:13;97010.72;;;11.22;65.14
20039;BME280;21737;42.868;25.320;2024-03-06T12:23:41;97014.81;;;11.10;64.66
20039;BME280;21737;42.868;25.320;2024-03-06T12:26:09;97015.53;;;11.25;66.07
20039;BME280;21737;42.868;25.320;2024-03-06T12:28:39;97012.31;;;11.02;66.14
20039;BME280;21737;42.868;25.320;2024-03-06T12:31:07;97008.06;;;10.95;66.21
20039;BME280;21737;42.868;25.320;2024-03-06T12:33:33;97020.97;;;10.95;65.24
20039;BME280;21737;42.868;25.320;2024-03-06T12:36:06;97008.03;;;11.09;66.52
20039;BME280;21737;42.868;25.320;2024-03-06T12:38:37;97018.19;;;11.11;64.80
20039;BME280;21737;42.868;25.320;2024-03-06T12:41:03;97011.69;;;11.00;64.23
20039;BME280;21737;42.868;25.320;2024-03-06T12:43:31;97008.88;;;10.95;65.24
20039;BME280;21737;42.868;25.320;2024-03-06T12:46:00;97010.25;;;11.12;65.21
20039;BME280;21737;42.868;25.320;2024-03-06T12:48:26;97004.66;;;11.30;64.64
20039;BME280;21737;42.868;25.320;2024-03-06T12:50:54;97011.28;;;11.39;63.57
20039;BME280;21737;42.868;25.320;2024-03-06T12:53:21;97010.53;;;11.24;65.51
20039;BME280;21737;42.868;25.320;2024-03-06T12:55:48;97010.03;;;11.14;64.91
20039;BME280;21737;42.868;25.320;2024-03-06T12:58:14;97004.69;;;11.15;66.27
20039;BME280;21737;42.868;25.320;2024-03-06T13:00:41;97003.25;;;10.91;65.08
20039;BME280;21737;42.868;25.320;2024-03-06T13:03:09;97006.00;;;11.26;64.27
20039;BME280;21737;42.868;25.320;2024-03-06T13:05:36;97003.66;;;10.74;65.15
20039;BME280;21737;42.868;25.320;2024-03-06T13:08:03;97004.66;;;10.73;64.45
20039;BME280;21737;42.868;25.320;2024-03-06T13:10:28;96996.66;;;10.68;64.67
20039;BME280;21737;42.868;25.320;2024-03-06T13:12:54;96997.72;;;10.73;65.42